createdAt,value
2023-03-03T00:02:25.337Z,39.63
2023-03-03T00:04:55.807Z,38.65
2023-03-03T00:07:26.107Z,36.83
2023-03-03T00:09:58.332Z,37.53
2023-03-03T00:12:31.440Z,37.87
2023-03-03T00:15:04.429Z,36.17
2023-03-03T00:17:35.401Z,38.57
2023-03-03T00:20:30.775Z,42.27
2023-03-03T00:23:18.730Z,40.63
2023-03-03T00:25:53.590Z,40.80
2023-03-03T00:28:29.242Z,39.77
2023-03-03T00:31:05.149Z,40.33
2023-03-03T00:33:37.738Z,44.77
2023-03-03T00:36:35.793Z,40.57
2023-03-03T00:39:31.472Z,44.40
2023-03-03T00:42:04.454Z,47.67
2023-03-03T00:44:46.006Z,51.63
2023-03-03T00:47:32.016Z,49.20
2023-03-03T00:50:31.607Z,49.60
2023-03-03T00:53:09.566Z,48.53
2023-03-03T00:55:40.611Z,45.70
2023-03-03T01:00:48.160Z,51.87
2023-03-03T01:03:27.340Z,52.83
2023-03-03T01:05:58.562Z,61.80
2023-03-03T01:08:29.062Z,58.13
2023-03-03T01:11:03.251Z,56.70
2023-03-03T01:13:38.005Z,65.13
2023-03-03T01:16:10.185Z,65.77
2023-03-03T01:18:43.348Z,57.20
2023-03-03T01:21:14.533Z,64.07
2023-03-03T01:26:15.272Z,129.93
2023-03-03T01:28:45.720Z,60.80
2023-03-03T01:31:16.109Z,82.70
2023-03-03T01:33:49.082Z,65.87
2023-03-03T01:36:19.390Z,74.30
2023-03-03T01:38:49.722Z,71.67
2023-03-03T01:41:20.386Z,63.60
2023-03-03T01:43:54.291Z,73.85
2023-03-03T01:46:53.209Z,62.57
2023-03-03T01:49:30.991Z,63.57
2023-03-03T01:52:04.921Z,66.47
2023-03-03T01:54:46.688Z,89.87
2023-03-03T01:57:26.036Z,70.93
2023-03-03T02:00:01.089Z,80.27
2023-03-03T02:02:33.092Z,61.10
2023-03-03T02:05:06.401Z,57.43
2023-03-03T02:07:37.191Z,94.40
2023-03-03T02:10:14.087Z,107.10
2023-03-03T02:12:48.816Z,68.00
2023-03-03T02:15:29.858Z,106.10
2023-03-03T02:18:03.902Z,102.18
2023-03-03T02:20:49.989Z,65.37
2023-03-03T02:23:29.291Z,63.37
2023-03-03T02:26:13.379Z,86.77
2023-03-03T02:28:45.077Z,97.67
2023-03-03T02:31:21.602Z,77.57
2023-03-03T02:33:54.934Z,63.80
2023-03-03T02:36:27.672Z,78.23
2023-03-03T02:39:07.492Z,90.40
2023-03-03T02:41:46.656Z,121.90
2023-03-03T02:44:20.987Z,72.03
2023-03-03T02:46:53.875Z,58.93
2023-03-03T02:49:27.937Z,140.73
2023-03-03T02:51:59.165Z,92.57
2023-03-03T02:54:32.749Z,55.80
2023-03-03T02:57:09.181Z,64.47
2023-03-03T02:59:39.554Z,55.33
2023-03-03T03:02:16.257Z,50.83
2023-03-03T03:04:46.693Z,54.00
2023-03-03T03:07:21.653Z,51.77
2023-03-03T03:09:52.180Z,52.33
2023-03-03T03:12:25.169Z,54.10
2023-03-03T03:14:58.792Z,53.10
2023-03-03T03:17:29.726Z,46.80
2023-03-03T03:20:02.504Z,55.70
2023-03-03T03:22:34.032Z,49.90
2023-03-03T03:25:04.418Z,52.83
2023-03-03T03:27:38.080Z,47.70
2023-03-03T03:30:10.575Z,76.30
2023-03-03T03:32:40.912Z,52.33
2023-03-03T03:35:13.627Z,50.42
2023-03-03T03:37:43.969Z,53.77
2023-03-03T03:40:16.096Z,52.15
2023-03-03T03:42:49.060Z,54.13
2023-03-03T03:45:19.749Z,53.27
2023-03-03T03:47:50.976Z,51.33
2023-03-03T03:50:22.521Z,51.55
2023-03-03T03:52:53.097Z,51.08
2023-03-03T03:55:23.799Z,48.25
2023-03-03T03:57:58.083Z,52.67
2023-03-03T04:00:29.997Z,62.70
2023-03-03T04:03:03.188Z,75.40
2023-03-03T04:05:33.706Z,57.00
2023-03-03T04:08:04.794Z,64.47
2023-03-03T04:10:35.487Z,67.45
2023-03-03T04:13:10.195Z,51.03
2023-03-03T04:15:40.635Z,54.70
2023-03-03T04:18:13.502Z,66.05
2023-03-03T04:20:45.156Z,53.73
2023-03-03T04:23:15.731Z,52.22
2023-03-03T04:25:46.487Z,69.78
2023-03-03T04:28:22.109Z,53.40
2023-03-03T04:30:53.797Z,55.67
2023-03-03T04:33:25.514Z,50.37
2023-03-03T04:35:55.993Z,51.60
2023-03-03T04:38:26.956Z,63.00
2023-03-03T04:40:59.667Z,65.50
2023-03-03T04:43:35.307Z,51.67
2023-03-03T04:46:07.024Z,49.37
2023-03-03T04:48:41.870Z,48.83
2023-03-03T04:51:13.588Z,53.70
2023-03-03T04:53:45.657Z,45.80
2023-03-03T04:56:17.117Z,54.77
2023-03-03T04:58:50.084Z,44.77
2023-03-03T05:01:21.011Z,50.43
2023-03-03T05:03:51.399Z,50.43
2023-03-03T05:06:22.025Z,44.90
2023-03-03T05:08:52.384Z,50.20
2023-03-03T05:11:22.759Z,46.57
2023-03-03T05:13:56.337Z,44.80
2023-03-03T05:16:26.722Z,46.27
2023-03-03T05:18:56.979Z,46.20
2023-03-03T05:21:27.557Z,47.57
2023-03-03T05:23:58.007Z,49.15
2023-03-03T05:26:28.419Z,42.55
2023-03-03T05:29:01.382Z,42.97
2023-03-03T05:31:31.829Z,44.33
2023-03-03T05:34:02.449Z,55.67
2023-03-03T05:36:33.985Z,78.93
2023-03-03T05:39:04.383Z,46.17
2023-03-03T05:41:37.098Z,50.30
2023-03-03T05:44:10.339Z,50.40
2023-03-03T05:46:40.760Z,56.27
2023-03-03T05:49:11.376Z,52.33
2023-03-03T05:51:41.844Z,64.47
2023-03-03T05:54:12.483Z,46.90
2023-03-03T05:56:42.941Z,64.80
2023-03-03T05:59:16.094Z,46.13
2023-03-03T06:01:48.425Z,71.20
2023-03-03T06:04:18.836Z,95.17
2023-03-03T06:06:49.736Z,75.17
2023-03-03T06:09:21.324Z,48.28
2023-03-03T06:11:52.997Z,48.03
2023-03-03T06:14:27.272Z,50.60
2023-03-03T06:17:00.769Z,53.43
2023-03-03T06:19:31.022Z,49.73
2023-03-03T06:22:01.329Z,49.27
2023-03-03T06:24:32.387Z,53.80
2023-03-03T06:27:03.979Z,60.75
2023-03-03T06:29:37.014Z,49.40
2023-03-03T06:32:07.874Z,50.33
2023-03-03T06:34:38.626Z,52.60
2023-03-03T06:37:09.076Z,54.95
2023-03-03T06:39:41.502Z,74.63
2023-03-03T06:42:12.369Z,52.37
2023-03-03T06:44:45.477Z,54.90
2023-03-03T06:47:19.230Z,50.13
2023-03-03T06:49:49.526Z,59.27
2023-03-03T06:52:25.285Z,47.67
2023-03-03T06:54:59.211Z,80.47
2023-03-03T06:57:32.538Z,63.80
2023-03-03T07:00:20.480Z,84.60
2023-03-03T07:02:51.351Z,82.40
2023-03-03T07:05:22.142Z,59.53
2023-03-03T07:07:52.774Z,50.05
2023-03-03T07:10:28.057Z,52.00
2023-03-03T07:13:12.308Z,59.33
2023-03-03T07:15:45.768Z,53.70
2023-03-03T07:18:37.347Z,56.33
2023-03-03T07:21:22.736Z,50.53
2023-03-03T07:23:55.485Z,54.50
2023-03-03T07:26:30.979Z,50.60
2023-03-03T07:29:04.424Z,47.30
2023-03-03T07:31:40.479Z,51.60
2023-03-03T07:34:24.401Z,51.80
2023-03-03T07:36:59.746Z,44.17
2023-03-03T07:39:40.426Z,41.90
2023-03-03T07:42:27.844Z,44.50
2023-03-03T07:45:31.174Z,44.33
2023-03-03T07:48:18.139Z,38.67
2023-03-03T07:50:50.072Z,44.57
2023-03-03T07:53:31.578Z,50.03
2023-03-03T07:56:05.039Z,41.80
2023-03-03T07:58:42.393Z,42.80
2023-03-03T08:01:43.764Z,44.27
2023-03-03T08:04:29.779Z,41.38
2023-03-03T08:07:02.456Z,43.30
2023-03-03T08:09:55.623Z,39.17
2023-03-03T08:12:47.431Z,43.23
2023-03-03T08:15:27.110Z,41.47
2023-03-03T08:17:59.201Z,45.50
2023-03-03T08:20:58.313Z,48.83
2023-03-03T08:23:28.710Z,44.80
2023-03-03T08:25:59.091Z,48.33
2023-03-03T08:28:29.713Z,40.30
2023-03-03T08:31:15.379Z,50.65
2023-03-03T08:33:47.536Z,48.23
2023-03-03T08:36:20.676Z,49.35
2023-03-03T08:38:51.070Z,43.07
2023-03-03T08:41:21.340Z,47.13
2023-03-03T08:43:51.834Z,74.97
2023-03-03T08:46:27.254Z,57.80
2023-03-03T08:48:57.757Z,60.00
2023-03-03T08:51:34.380Z,53.67
2023-03-03T08:54:04.883Z,53.10
2023-03-03T08:56:35.240Z,49.15
2023-03-03T08:59:05.700Z,51.57
2023-03-03T09:01:38.051Z,48.53
2023-03-03T09:04:08.515Z,60.47
2023-03-03T09:06:41.600Z,50.15
2023-03-03T09:09:11.908Z,45.90
2023-03-03T09:11:43.643Z,38.77
2023-03-03T09:14:16.862Z,41.93
2023-03-03T09:16:54.523Z,49.93
2023-03-03T09:19:29.631Z,52.33
2023-03-03T09:22:14.866Z,39.93
2023-03-03T09:24:45.917Z,42.83
2023-03-03T09:27:22.625Z,43.97
2023-03-03T09:29:52.982Z,42.80
2023-03-03T09:32:39.281Z,46.23
2023-03-03T09:35:39.212Z,46.00
2023-03-03T09:38:30.481Z,34.67
2023-03-03T09:41:30.139Z,45.70
2023-03-03T09:44:42.956Z,36.63
2023-03-03T09:47:42.076Z,40.33
2023-03-03T09:50:29.519Z,35.97
2023-03-03T09:53:19.962Z,36.47
2023-03-03T09:55:59.455Z,42.30
2023-03-03T09:59:00.314Z,35.60
2023-03-03T10:01:55.576Z,30.95
2023-03-03T10:05:19.348Z,34.27
2023-03-03T10:08:11.536Z,33.30
2023-03-03T10:10:56.745Z,29.03
2023-03-03T10:13:49.810Z,25.67
2023-03-03T10:16:45.354Z,29.73
2023-03-03T10:19:36.997Z,30.40
2023-03-03T10:22:27.493Z,26.77
2023-03-03T10:25:16.632Z,25.33
2023-03-03T10:28:19.438Z,22.60
2023-03-03T10:31:07.612Z,26.70
2023-03-03T10:33:50.939Z,24.73
2023-03-03T10:36:48.946Z,24.75
2023-03-03T10:39:45.765Z,24.63
2023-03-03T10:42:48.385Z,24.93
2023-03-03T10:45:56.957Z,23.10
2023-03-03T10:48:49.451Z,23.10
2023-03-03T10:51:31.085Z,17.57
2023-03-03T10:54:18.251Z,21.73
2023-03-03T10:56:59.958Z,18.67
2023-03-03T11:00:04.529Z,16.10
2023-03-03T11:02:53.625Z,19.73
2023-03-03T11:05:37.451Z,17.57
2023-03-03T11:08:14.437Z,16.23
2023-03-03T11:10:57.673Z,15.40
2023-03-03T11:13:39.664Z,18.60
2023-03-03T11:16:25.662Z,18.57
2023-03-03T11:19:24.634Z,16.37
2023-03-03T11:22:05.911Z,20.33
2023-03-03T11:28:10.074Z,25.10
2023-03-03T11:31:01.618Z,18.43
2023-03-03T11:33:45.155Z,18.20
2023-03-03T11:36:24.188Z,17.80
2023-03-03T11:39:02.478Z,19.13
2023-03-03T11:41:41.318Z,17.37
2023-03-03T11:44:25.903Z,19.13
2023-03-03T11:47:02.361Z,18.73
2023-03-03T11:49:40.714Z,17.30
2023-03-03T11:52:28.949Z,16.27
2023-03-03T11:55:08.014Z,15.60
2023-03-03T11:57:46.426Z,14.07
2023-03-03T12:00:32.365Z,12.50
2023-03-03T12:03:19.915Z,14.63
2023-03-03T12:06:01.522Z,16.43
2023-03-03T12:08:50.117Z,15.37
2023-03-03T12:11:28.963Z,14.50
2023-03-03T12:14:06.674Z,15.93
2023-03-03T12:16:48.447Z,14.47
2023-03-03T12:19:46.419Z,14.43
2023-03-03T12:22:47.186Z,16.47
2023-03-03T12:25:32.893Z,14.67
2023-03-03T12:28:12.219Z,14.40
2023-03-03T12:31:02.919Z,14.60
2023-03-03T12:33:54.457Z,13.87
2023-03-03T12:39:35.445Z,14.90
2023-03-03T12:42:23.580Z,15.63
2023-03-03T12:45:05.780Z,13.80
2023-03-03T12:47:42.473Z,15.17
2023-03-03T12:50:34.147Z,17.20
2023-03-03T12:53:17.013Z,16.30
2023-03-03T12:55:57.060Z,17.13
2023-03-03T12:58:45.152Z,15.03
2023-03-03T13:01:33.207Z,19.07
2023-03-03T13:04:13.072Z,19.33
2023-03-03T13:06:50.692Z,16.30
2023-03-03T13:09:38.558Z,17.97
2023-03-03T13:12:33.918Z,16.30
2023-03-03T13:15:32.158Z,17.77
2023-03-03T13:18:22.876Z,17.77
2023-03-03T13:20:58.883Z,14.37
2023-03-03T13:23:44.959Z,18.57
2023-03-03T13:26:24.082Z,17.90
2023-03-03T13:29:14.294Z,20.90
2023-03-03T13:31:51.576Z,20.33
2023-03-03T13:34:40.472Z,22.83
2023-03-03T13:37:23.861Z,22.53
2023-03-03T13:40:03.649Z,24.47
2023-03-03T13:42:42.844Z,22.73
2023-03-03T13:45:27.615Z,21.57
2023-03-03T13:48:12.103Z,24.47
2023-03-03T13:50:50.458Z,27.00
2023-03-03T13:53:45.299Z,25.40
2023-03-03T13:56:35.912Z,23.67
2023-03-03T13:59:18.422Z,21.77
2023-03-03T14:02:01.157Z,24.60
2023-03-03T14:04:50.006Z,23.00
2023-03-03T14:07:29.435Z,26.73
2023-03-03T14:10:06.841Z,25.47
2023-03-03T14:12:47.514Z,23.80
2023-03-03T14:15:26.931Z,30.50
2023-03-03T14:18:19.856Z,31.97
2023-03-03T14:20:55.998Z,27.97
2023-03-03T14:23:34.123Z,29.47
2023-03-03T14:26:12.957Z,27.10
2023-03-03T14:28:46.679Z,29.87
2023-03-03T14:31:26.558Z,35.93
2023-03-03T14:34:04.622Z,30.87
2023-03-03T14:36:43.880Z,38.60
2023-03-03T14:39:35.930Z,34.33
2023-03-03T14:42:15.779Z,32.77
2023-03-03T14:44:59.449Z,31.50
2023-03-03T14:47:30.678Z,35.50
2023-03-03T14:52:37.969Z,39.63
2023-03-03T14:55:37.096Z,45.50
2023-03-03T14:58:10.413Z,47.33
2023-03-03T15:00:40.823Z,50.33
2023-03-03T15:03:25.472Z,49.73
2023-03-03T15:05:58.865Z,51.50
2023-03-03T15:08:37.248Z,44.80
2023-03-03T15:11:24.958Z,41.83
2023-03-03T15:13:55.422Z,47.67
2023-03-03T15:16:27.705Z,50.30
2023-03-03T15:19:43.649Z,49.23
2023-03-03T15:22:25.253Z,50.53
2023-03-03T15:25:06.777Z,46.43
2023-03-03T15:27:44.183Z,46.17
2023-03-03T15:30:27.227Z,47.17
2023-03-03T15:33:07.415Z,42.57
2023-03-03T15:35:53.550Z,47.20
2023-03-03T15:38:38.702Z,40.53
2023-03-03T15:41:25.910Z,42.37
2023-03-03T15:44:17.215Z,38.20
2023-03-03T15:47:21.331Z,40.33
2023-03-03T15:50:10.783Z,41.90
2023-03-03T15:52:54.006Z,42.77
2023-03-03T15:55:38.593Z,36.50
2023-03-03T15:58:57.309Z,37.43
2023-03-03T16:01:32.923Z,44.60
2023-03-03T16:04:08.172Z,48.40
2023-03-03T16:06:50.555Z,43.90
2023-03-03T16:09:35.173Z,45.63
2023-03-03T16:12:17.242Z,47.57
2023-03-03T16:15:19.952Z,53.63
2023-03-03T16:18:01.809Z,42.30
2023-03-03T16:20:43.330Z,43.23
2023-03-03T16:26:20.293Z,42.87
2023-03-03T16:29:05.755Z,42.90
2023-03-03T16:31:47.957Z,48.87
2023-03-03T16:34:27.533Z,50.07
2023-03-03T16:37:07.893Z,46.03
2023-03-03T16:39:54.199Z,50.50
2023-03-03T16:42:30.954Z,37.73
2023-03-03T16:45:26.007Z,41.30
2023-03-03T16:48:16.701Z,43.80
2023-03-03T16:50:57.268Z,40.20
2023-03-03T16:53:52.005Z,41.28
2023-03-03T16:56:26.275Z,42.63
2023-03-03T16:59:45.381Z,39.63
2023-03-03T17:02:44.745Z,42.10
2023-03-03T17:05:32.799Z,42.67
2023-03-03T17:08:43.991Z,44.63
2023-03-03T17:11:24.469Z,41.65
2023-03-03T17:14:24.038Z,38.33
2023-03-03T17:17:01.588Z,43.00
2023-03-03T17:19:47.478Z,44.50
2023-03-03T17:22:28.440Z,47.23
2023-03-03T17:25:11.326Z,43.00
2023-03-03T17:28:03.361Z,48.53
2023-03-03T17:30:44.784Z,42.67
2023-03-03T17:36:18.386Z,39.50
2023-03-03T17:39:10.136Z,47.83
2023-03-03T17:41:48.006Z,43.83
2023-03-03T17:44:27.436Z,43.30
2023-03-03T17:47:03.174Z,44.97
2023-03-03T17:50:11.000Z,45.23
2023-03-03T17:53:20.369Z,44.47
2023-03-03T17:56:16.678Z,44.93
2023-03-03T17:59:38.486Z,51.17
2023-03-03T18:05:46.724Z,42.20
2023-03-03T18:08:39.319Z,47.00
2023-03-03T18:11:42.777Z,51.13
2023-03-03T18:15:17.263Z,52.87
2023-03-03T18:18:04.372Z,47.70
2023-03-03T18:20:50.090Z,51.27
2023-03-03T18:23:35.624Z,44.77
2023-03-03T18:26:27.996Z,47.83
2023-03-03T18:29:20.563Z,46.20
2023-03-03T18:32:22.479Z,46.73
2023-03-03T18:35:32.535Z,48.23
2023-03-03T18:38:35.920Z,48.43
2023-03-03T18:41:08.278Z,50.00
2023-03-03T18:44:01.757Z,48.07
2023-03-03T18:46:52.376Z,54.00
2023-03-03T18:50:01.011Z,51.80
2023-03-03T18:52:33.093Z,55.90
2023-03-03T18:55:28.353Z,50.53
2023-03-03T18:58:35.777Z,51.00
2023-03-03T19:01:44.581Z,52.40
2023-03-03T19:04:27.108Z,50.57
2023-03-03T19:07:26.569Z,46.10
2023-03-03T19:10:02.932Z,49.17
2023-03-03T19:12:57.911Z,54.40
2023-03-03T19:16:01.496Z,52.40
2023-03-03T19:18:36.448Z,51.37
2023-03-03T19:21:10.494Z,49.83
2023-03-03T19:23:54.500Z,53.17
2023-03-03T19:26:48.370Z,53.00
2023-03-03T19:29:41.678Z,52.93
2023-03-03T19:32:32.576Z,51.97
2023-03-03T19:35:23.305Z,48.75
2023-03-03T19:38:08.950Z,55.40
2023-03-03T19:40:48.919Z,54.73
2023-03-03T19:43:36.245Z,51.90
2023-03-03T19:46:30.130Z,56.07
2023-03-03T19:49:11.855Z,60.50
2023-03-03T19:51:55.611Z,55.90
2023-03-03T19:54:51.304Z,55.73
2023-03-03T19:57:38.511Z,57.20
2023-03-03T20:00:20.473Z,56.50
2023-03-03T20:03:18.496Z,56.23
2023-03-03T20:05:54.626Z,58.13
2023-03-03T20:08:37.045Z,59.00
2023-03-03T20:11:15.490Z,59.60
2023-03-03T20:13:57.030Z,54.30
2023-03-03T20:16:41.544Z,58.87
2023-03-03T20:19:32.058Z,62.70
2023-03-03T20:22:12.415Z,60.23
2023-03-03T20:25:10.555Z,61.43
2023-03-03T20:27:53.793Z,61.43
2023-03-03T20:30:38.876Z,66.60
2023-03-03T20:33:34.146Z,55.13
2023-03-03T20:36:16.836Z,63.60
2023-03-03T20:39:04.424Z,63.23
2023-03-03T20:41:56.526Z,59.10
2023-03-03T20:44:43.519Z,58.70
2023-03-03T20:47:24.002Z,60.40
2023-03-03T20:50:15.670Z,66.07
2023-03-03T20:53:03.779Z,57.40
2023-03-03T20:55:49.896Z,61.10
2023-03-03T20:58:30.566Z,65.80
2023-03-03T21:01:09.186Z,62.30
2023-03-03T21:03:43.276Z,58.07
2023-03-03T21:06:18.039Z,67.13
2023-03-03T21:08:54.381Z,70.20
2023-03-03T21:11:27.732Z,71.87
2023-03-03T21:14:02.583Z,69.53
2023-03-03T21:16:36.778Z,64.83
2023-03-03T21:19:10.147Z,64.70
2023-03-03T21:21:43.148Z,62.20
2023-03-03T21:24:19.970Z,68.80
2023-03-03T21:26:55.237Z,66.27
2023-03-03T21:29:31.484Z,66.77
2023-03-03T21:32:04.143Z,63.97
2023-03-03T21:34:36.429Z,67.73
2023-03-03T21:37:08.652Z,62.87
2023-03-03T21:39:41.614Z,58.40
2023-03-03T21:42:14.668Z,64.90
2023-03-03T21:44:49.831Z,54.57
2023-03-03T21:47:22.782Z,62.63
2023-03-03T21:49:55.222Z,60.17
2023-03-03T21:52:26.013Z,63.83
2023-03-03T21:54:56.400Z,54.72
2023-03-03T21:57:27.011Z,64.27
2023-03-03T22:00:00.198Z,61.65
2023-03-03T22:02:30.864Z,60.67
2023-03-03T22:05:03.281Z,54.33
2023-03-03T22:07:33.604Z,56.83
2023-03-03T22:10:04.023Z,46.13
2023-03-03T22:12:34.275Z,57.63
2023-03-03T22:15:08.558Z,55.47
2023-03-03T22:17:40.791Z,60.17
2023-03-03T22:20:14.790Z,57.90
2023-03-03T22:22:45.332Z,59.23
2023-03-03T22:25:15.709Z,55.30
2023-03-03T22:27:46.002Z,53.70
2023-03-03T22:30:20.034Z,53.83
2023-03-03T22:32:52.413Z,64.00
2023-03-03T22:35:22.694Z,55.00
2023-03-03T22:37:53.158Z,63.53
2023-03-03T22:40:23.755Z,59.40
2023-03-03T22:42:54.178Z,57.53
2023-03-03T22:45:27.234Z,67.28
2023-03-03T22:47:57.577Z,64.10
2023-03-03T22:50:28.365Z,61.53
2023-03-03T22:52:58.668Z,58.97
2023-03-03T22:55:29.407Z,59.17
2023-03-03T22:57:59.780Z,64.07
2023-03-03T23:00:33.000Z,63.67
2023-03-03T23:03:03.588Z,55.47
2023-03-03T23:05:34.119Z,62.00
2023-03-03T23:08:04.806Z,68.20
2023-03-03T23:10:35.830Z,58.47
2023-03-03T23:13:06.648Z,61.33
2023-03-03T23:15:40.068Z,57.80
2023-03-03T23:18:10.657Z,57.37
2023-03-03T23:20:45.862Z,58.03
2023-03-03T23:23:16.379Z,53.93
2023-03-03T23:25:46.690Z,52.53
2023-03-03T23:28:17.213Z,50.93
2023-03-03T23:30:52.082Z,58.47
2023-03-03T23:33:23.646Z,49.37
2023-03-03T23:38:24.109Z,48.03
2023-03-03T23:40:54.499Z,48.93
2023-03-03T23:43:24.825Z,56.77
2023-03-03T23:45:57.770Z,51.93
2023-03-03T23:48:28.151Z,51.93
2023-03-03T23:50:58.555Z,54.23
2023-03-03T23:53:29.089Z,51.00
2023-03-03T23:55:59.449Z,49.75
2023-03-03T23:58:29.691Z,49.33
